sensor_id;sensor_type;location;lat;lon;timestamp;temperature;humidity
35645;DHT22;21764;52.042;6.830;2022-10-13T00:00:11;10.00;99.90
35645;DHT22;21764;52.042;6.830;2022-10-13T00:05:12;9.90;99.90
35645;DHT22;21764;52.042;6.830;2022-10-13T00:10:13;9.90;99.90
35645;DHT22;21764;52.042;6.830;2022-10-13T00:15:14;9.90;99.90
35645;DHT22;21764;52.042;6.830;2022-10-13T00:20:14;9.70;99.90
35645;DHT22;21764;52.042;6.830;2022-10-13T00:25:15;9.80;99.90
35645;DHT22;21764;52.042;6.830;2022-10-13T00:30:16;9.70;99.90
35645;DHT22;21764;52.042;6.830;2022-10-13T00:35:16;9.70;99.90
35645;DHT22;21764;52.042;6.830;2022-10-13T00:40:17;9.70;99.90
35645;DHT22;21764;52.042;6.830;2022-10-13T00:45:23;9.80;99.90
35645;DHT22;21764;52.042;6.830;2022-10-13T00:50:31;9.70;99.90
35645;DHT22;21764;52.042;6.830;2022-10-13T00:55:34;9.70;99.90
35645;DHT22;21764;52.042;6.830;2022-10-13T01:00:35;9.80;99.90
35645;DHT22;21764;52.042;6.830;2022-10-13T01:05:38;10.00;99.90
35645;DHT22;21764;52.042;6.830;2022-10-13T01:17:17;10.40;99.90
35645;DHT22;21764;52.042;6.830;2022-10-13T01:22:07;10.40;99.90
35645;DHT22;21764;52.042;6.830;2022-10-13T01:33:05;10.40;99.90
35645;DHT22;21764;52.042;6.830;2022-10-13T01:38:42;10.30;99.90
35645;DHT22;21764;52.042;6.830;2022-10-13T01:43:52;10.50;99.90
35645;DHT22;21764;52.042;6.830;2022-10-13T01:48:58;10.80;99.90
35645;DHT22;21764;52.042;6.830;2022-10-13T01:54:00;10.80;99.90
35645;DHT22;21764;52.042;6.830;2022-10-13T01:59:04;10.90;99.90
35645;DHT22;21764;52.042;6.830;2022-10-13T02:04:25;11.00;99.90
35645;DHT22;21764;52.042;6.830;2022-10-13T02:14:47;11.20;99.90
35645;DHT22;21764;52.042;6.830;2022-10-13T02:19:49;11.30;99.90
35645;DHT22;21764;52.042;6.830;2022-10-13T02:24:50;11.40;99.90
35645;DHT22;21764;52.042;6.830;2022-10-13T02:29:53;11.40;99.90
35645;DHT22;21764;52.042;6.830;2022-10-13T02:34:54;11.40;99.90
35645;DHT22;21764;52.042;6.830;2022-10-13T02:39:54;11.40;99.90
35645;DHT22;21764;52.042;6.830;2022-10-13T02:44:55;11.50;99.90
35645;DHT22;21764;52.042;6.830;2022-10-13T02:49:56;11.50;99.90
35645;DHT22;21764;52.042;6.830;2022-10-13T02:54:56;11.50;99.90
35645;DHT22;21764;52.042;6.830;2022-10-13T02:59:57;11.50;99.90
35645;DHT22;21764;52.042;6.830;2022-10-13T03:04:58;11.60;99.90
35645;DHT22;21764;52.042;6.830;2022-10-13T03:09:59;11.40;99.90
35645;DHT22;21764;52.042;6.830;2022-10-13T03:14:59;11.30;99.90
35645;DHT22;21764;52.042;6.830;2022-10-13T03:20:00;11.30;99.90
35645;DHT22;21764;52.042;6.830;2022-10-13T03:25:01;11.20;99.90
35645;DHT22;21764;52.042;6.830;2022-10-13T03:30:03;11.20;99.90
35645;DHT22;21764;52.042;6.830;2022-10-13T03:35:04;11.20;99.90
35645;DHT22;21764;52.042;6.830;2022-10-13T03:40:06;11.30;99.90
35645;DHT22;21764;52.042;6.830;2022-10-13T03:45:07;11.30;99.90
35645;DHT22;21764;52.042;6.830;2022-10-13T03:50:09;11.30;99.90
35645;DHT22;21764;52.042;6.830;2022-10-13T03:55:10;11.10;99.90
35645;DHT22;21764;52.042;6.830;2022-10-13T04:00:11;11.30;99.90
35645;DHT22;21764;52.042;6.830;2022-10-13T04:05:12;11.30;99.90
35645;DHT22;21764;52.042;6.830;2022-10-13T04:10:13;11.30;99.90
35645;DHT22;21764;52.042;6.830;2022-10-13T04:15:14;11.10;99.90
35645;DHT22;21764;52.042;6.830;2022-10-13T04:20:14;11.10;99.90
35645;DHT22;21764;52.042;6.830;2022-10-13T04:25:16;11.10;99.90
35645;DHT22;21764;52.042;6.830;2022-10-13T04:30:16;11.20;99.90
35645;DHT22;21764;52.042;6.830;2022-10-13T04:35:17;11.20;99.90
35645;DHT22;21764;52.042;6.830;2022-10-13T04:40:18;11.10;99.90
35645;DHT22;21764;52.042;6.830;2022-10-13T04:45:19;11.00;99.90
35645;DHT22;21764;52.042;6.830;2022-10-13T04:50:19;11.10;99.90
35645;DHT22;21764;52.042;6.830;2022-10-13T04:55:20;11.10;99.90
35645;DHT22;21764;52.042;6.830;2022-10-13T05:00:21;11.10;99.90
35645;DHT22;21764;52.042;6.830;2022-10-13T05:05:21;11.10;99.90
35645;DHT22;21764;52.042;6.830;2022-10-13T05:10:22;11.20;99.90
35645;DHT22;21764;52.042;6.830;2022-10-13T05:15:23;11.30;99.90
35645;DHT22;21764;52.042;6.830;2022-10-13T05:20:23;11.40;99.90
35645;DHT22;21764;52.042;6.830;2022-10-13T05:25:25;11.30;99.90
35645;DHT22;21764;52.042;6.830;2022-10-13T05:30:26;11.30;99.90
35645;DHT22;21764;52.042;6.830;2022-10-13T05:35:27;11.40;99.90
35645;DHT22;21764;52.042;6.830;2022-10-13T05:40:27;11.40;99.90
35645;DHT22;21764;52.042;6.830;2022-10-13T05:45:31;11.50;99.90
35645;DHT22;21764;52.042;6.830;2022-10-13T05:50:33;11.50;99.90
35645;DHT22;21764;52.042;6.830;2022-10-13T05:55:34;11.60;99.90
35645;DHT22;21764;52.042;6.830;2022-10-13T06:00:35;11.60;99.90
35645;DHT22;21764;52.042;6.830;2022-10-13T06:05:36;11.60;99.90
35645;DHT22;21764;52.042;6.830;2022-10-13T06:10:37;11.70;99.90
35645;DHT22;21764;52.042;6.830;2022-10-13T06:15:38;11.70;99.90
35645;DHT22;21764;52.042;6.830;2022-10-13T06:20:38;11.70;99.90
35645;DHT22;21764;52.042;6.830;2022-10-13T06:25:46;11.80;99.90
35645;DHT22;21764;52.042;6.830;2022-10-13T06:30:48;12.00;99.90
35645;DHT22;21764;52.042;6.830;2022-10-13T06:35:53;12.00;99.90
35645;DHT22;21764;52.042;6.830;2022-10-13T06:40:57;12.10;99.90
35645;DHT22;21764;52.042;6.830;2022-10-13T06:45:59;12.10;99.90
35645;DHT22;21764;52.042;6.830;2022-10-13T06:51:07;11.90;99.90
35645;DHT22;21764;52.042;6.830;2022-10-13T06:56:08;11.90;99.90
35645;DHT22;21764;52.042;6.830;2022-10-13T07:01:11;12.20;99.90
35645;DHT22;21764;52.042;6.830;2022-10-13T07:06:12;12.80;99.90
35645;DHT22;21764;52.042;6.830;2022-10-13T07:11:14;15.50;99.90
35645;DHT22;21764;52.042;6.830;2022-10-13T07:16:16;18.70;99.90
35645;DHT22;21764;52.042;6.830;2022-10-13T07:21:18;18.00;99.90
35645;DHT22;21764;52.042;6.830;2022-10-13T07:26:28;16.10;99.90
35645;DHT22;21764;52.042;6.830;2022-10-13T07:31:29;15.60;99.90
35645;DHT22;21764;52.042;6.830;2022-10-13T07:36:31;15.40;99.90
35645;DHT22;21764;52.042;6.830;2022-10-13T07:41:32;15.30;99.90
35645;DHT22;21764;52.042;6.830;2022-10-13T07:46:33;14.80;99.90
35645;DHT22;21764;52.042;6.830;2022-10-13T07:51:34;14.60;99.90
35645;DHT22;21764;52.042;6.830;2022-10-13T07:56:34;14.50;99.90
35645;DHT22;21764;52.042;6.830;2022-10-13T08:01:36;14.50;99.90
35645;DHT22;21764;52.042;6.830;2022-10-13T08:06:37;15.10;99.90
35645;DHT22;21764;52.042;6.830;2022-10-13T08:11:38;15.50;99.90
35645;DHT22;21764;52.042;6.830;2022-10-13T08:16:38;16.60;99.90
35645;DHT22;21764;52.042;6.830;2022-10-13T08:21:41;15.60;99.90
35645;DHT22;21764;52.042;6.830;2022-10-13T08:26:43;15.20;99.90
35645;DHT22;21764;52.042;6.830;2022-10-13T08:31:44;14.80;99.90
35645;DHT22;21764;52.042;6.830;2022-10-13T08:36:45;14.40;99.90
35645;DHT22;21764;52.042;6.830;2022-10-13T08:41:46;14.30;99.90
35645;DHT22;21764;52.042;6.830;2022-10-13T08:46:58;14.30;99.90
35645;DHT22;21764;52.042;6.830;2022-10-13T08:52:04;14.50;99.90
35645;DHT22;21764;52.042;6.830;2022-10-13T08:57:08;14.70;99.90
35645;DHT22;21764;52.042;6.830;2022-10-13T09:02:20;15.10;99.90
35645;DHT22;21764;52.042;6.830;2022-10-13T09:07:31;15.40;99.90
35645;DHT22;21764;52.042;6.830;2022-10-13T09:12:34;15.30;99.90
35645;DHT22;21764;52.042;6.830;2022-10-13T09:17:36;15.10;99.90
35645;DHT22;21764;52.042;6.830;2022-10-13T09:22:38;14.90;99.90
35645;DHT22;21764;52.042;6.830;2022-10-13T09:32:45;14.50;99.90
35645;DHT22;21764;52.042;6.830;2022-10-13T09:38:10;14.70;99.90
35645;DHT22;21764;52.042;6.830;2022-10-13T09:43:31;14.80;99.90
35645;DHT22;21764;52.042;6.830;2022-10-13T09:48:35;15.10;99.90
35645;DHT22;21764;52.042;6.830;2022-10-13T09:53:39;15.00;99.90
35645;DHT22;21764;52.042;6.830;2022-10-13T09:58:49;15.10;99.90
35645;DHT22;21764;52.042;6.830;2022-10-13T10:03:50;15.20;99.90
35645;DHT22;21764;52.042;6.830;2022-10-13T10:14:51;18.10;99.90
35645;DHT22;21764;52.042;6.830;2022-10-13T10:25:12;18.90;99.90
35645;DHT22;21764;52.042;6.830;2022-10-13T10:30:19;19.20;99.90
35645;DHT22;21764;52.042;6.830;2022-10-13T10:35:43;20.20;99.90
35645;DHT22;21764;52.042;6.830;2022-10-13T10:46:28;19.40;99.90
35645;DHT22;21764;52.042;6.830;2022-10-13T10:51:34;20.30;99.90
35645;DHT22;21764;52.042;6.830;2022-10-13T10:56:36;20.90;99.90
35645;DHT22;21764;52.042;6.830;2022-10-13T11:02:05;20.20;99.90
35645;DHT22;21764;52.042;6.830;2022-10-13T11:17:52;20.50;99.90
35645;DHT22;21764;52.042;6.830;2022-10-13T11:27:59;19.60;99.90
35645;DHT22;21764;52.042;6.830;2022-10-13T11:38:49;19.10;99.90
35645;DHT22;21764;52.042;6.830;2022-10-13T11:44:02;18.80;99.90
35645;DHT22;21764;52.042;6.830;2022-10-13T11:54:38;18.20;99.90
35645;DHT22;21764;52.042;6.830;2022-10-13T11:59:45;18.20;99.90
35645;DHT22;21764;52.042;6.830;2022-10-13T12:05:19;17.80;99.90
35645;DHT22;21764;52.042;6.830;2022-10-13T12:10:32;17.50;99.90
35645;DHT22;21764;52.042;6.830;2022-10-13T12:15:36;16.90;99.90
35645;DHT22;21764;52.042;6.830;2022-10-13T12:20:39;16.90;99.90
35645;DHT22;21764;52.042;6.830;2022-10-13T12:25:46;16.60;99.90
35645;DHT22;21764;52.042;6.830;2022-10-13T12:30:52;16.60;99.90
35645;DHT22;21764;52.042;6.830;2022-10-13T12:35:53;16.50;99.90
35645;DHT22;21764;52.042;6.830;2022-10-13T12:40:54;16.40;99.90
35645;DHT22;21764;52.042;6.830;2022-10-13T12:45:55;16.60;99.90
35645;DHT22;21764;52.042;6.830;2022-10-13T12:51:08;16.50;99.90
35645;DHT22;21764;52.042;6.830;2022-10-13T12:56:28;16.70;99.90
35645;DHT22;21764;52.042;6.830;2022-10-13T13:01:32;17.00;99.90
35645;DHT22;21764;52.042;6.830;2022-10-13T13:06:35;16.60;99.90
35645;DHT22;21764;52.042;6.830;2022-10-13T13:11:37;16.10;99.90
35645;DHT22;21764;52.042;6.830;2022-10-13T13:16:38;16.00;99.90
35645;DHT22;21764;52.042;6.830;2022-10-13T13:21:38;15.90;99.90
35645;DHT22;21764;52.042;6.830;2022-10-13T13:26:39;16.10;99.90
35645;DHT22;21764;52.042;6.830;2022-10-13T13:31:40;15.90;99.90
35645;DHT22;21764;52.042;6.830;2022-10-13T13:36:41;15.60;99.90
35645;DHT22;21764;52.042;6.830;2022-10-13T13:41:41;15.50;99.90
35645;DHT22;21764;52.042;6.830;2022-10-13T13:46:42;15.40;99.90
35645;DHT22;21764;52.042;6.830;2022-10-13T13:51:43;15.60;99.90
35645;DHT22;21764;52.042;6.830;2022-10-13T13:56:43;15.60;99.90
35645;DHT22;21764;52.042;6.830;2022-10-13T14:01:44;15.40;99.90
35645;DHT22;21764;52.042;6.830;2022-10-13T14:06:44;15.40;99.90
35645;DHT22;21764;52.042;6.830;2022-10-13T14:11:45;15.40;99.90
35645;DHT22;21764;52.042;6.830;2022-10-13T14:16:46;15.50;99.90
35645;DHT22;21764;52.042;6.830;2022-10-13T14:21:47;15.50;99.90
35645;DHT22;21764;52.042;6.830;2022-10-13T14:26:47;15.30;99.90
35645;DHT22;21764;52.042;6.830;2022-10-13T14:31:48;15.30;99.90
35645;DHT22;21764;52.042;6.830;2022-10-13T14:36:49;15.10;99.90
35645;DHT22;21764;52.042;6.830;2022-10-13T14:41:49;15.10;99.90
35645;DHT22;21764;52.042;6.830;2022-10-13T14:46:50;15.10;99.90
35645;DHT22;21764;52.042;6.830;2022-10-13T14:51:50;15.20;99.90
35645;DHT22;21764;52.042;6.830;2022-10-13T14:56:51;15.00;99.90
35645;DHT22;21764;52.042;6.830;2022-10-13T15:01:52;14.90;99.90
35645;DHT22;21764;52.042;6.830;2022-10-13T15:06:52;14.90;99.90
35645;DHT22;21764;52.042;6.830;2022-10-13T15:11:53;14.80;99.90
35645;DHT22;21764;52.042;6.830;2022-10-13T15:16:54;14.60;99.90
35645;DHT22;21764;52.042;6.830;2022-10-13T15:21:57;14.60;99.90
35645;DHT22;21764;52.042;6.830;2022-10-13T15:26:58;14.50;99.90
35645;DHT22;21764;52.042;6.830;2022-10-13T15:32:13;14.30;99.90
35645;DHT22;21764;52.042;6.830;2022-10-13T15:37:17;14.30;99.90
35645;DHT22;21764;52.042;6.830;2022-10-13T15:42:18;14.30;99.90
35645;DHT22;21764;52.042;6.830;2022-10-13T15:47:18;14.20;99.90
35645;DHT22;21764;52.042;6.830;2022-10-13T15:52:19;14.40;99.90
35645;DHT22;21764;52.042;6.830;2022-10-13T15:57:20;14.20;99.90
35645;DHT22;21764;52.042;6.830;2022-10-13T16:02:21;14.10;99.90
35645;DHT22;21764;52.042;6.830;2022-10-13T16:07:23;13.90;99.90
35645;DHT22;21764;52.042;6.830;2022-10-13T16:12:24;14.00;99.90
35645;DHT22;21764;52.042;6.830;2022-10-13T16:17:25;14.10;99.90
35645;DHT22;21764;52.042;6.830;2022-10-13T16:22:26;14.00;99.90
35645;DHT22;21764;52.042;6.830;2022-10-13T16:27:26;14.00;99.90
35645;DHT22;21764;52.042;6.830;2022-10-13T16:32:27;14.00;99.90
35645;DHT22;21764;52.042;6.830;2022-10-13T16:37:29;14.00;99.90
35645;DHT22;21764;52.042;6.830;2022-10-13T16:42:29;13.90;99.90
35645;DHT22;21764;52.042;6.830;2022-10-13T16:47:30;14.00;99.90
35645;DHT22;21764;52.042;6.830;2022-10-13T16:52:31;13.90;99.90
35645;DHT22;21764;52.042;6.830;2022-10-13T16:57:31;13.90;99.90
35645;DHT22;21764;52.042;6.830;2022-10-13T17:02:33;14.00;99.90
35645;DHT22;21764;52.042;6.830;2022-10-13T17:07:34;13.80;99.90
35645;DHT22;21764;52.042;6.830;2022-10-13T17:12:35;13.90;99.90
35645;DHT22;21764;52.042;6.830;2022-10-13T17:17:35;14.00;99.90
35645;DHT22;21764;52.042;6.830;2022-10-13T17:22:37;14.00;99.90
35645;DHT22;21764;52.042;6.830;2022-10-13T17:27:37;14.00;99.90
35645;DHT22;21764;52.042;6.830;2022-10-13T17:32:38;14.00;99.90
35645;DHT22;21764;52.042;6.830;2022-10-13T17:37:39;14.00;99.90
35645;DHT22;21764;52.042;6.830;2022-10-13T17:42:39;14.00;99.90
35645;DHT22;21764;52.042;6.830;2022-10-13T17:47:50;14.00;99.90
35645;DHT22;21764;52.042;6.830;2022-10-13T17:52:51;14.00;99.90
35645;DHT22;21764;52.042;6.830;2022-10-13T17:57:51;14.00;99.90
35645;DHT22;21764;52.042;6.830;2022-10-13T18:02:53;14.10;99.90
35645;DHT22;21764;52.042;6.830;2022-10-13T18:07:56;14.10;99.90
35645;DHT22;21764;52.042;6.830;2022-10-13T18:12:57;14.10;99.90
35645;DHT22;21764;52.042;6.830;2022-10-13T18:17:57;14.10;99.90
35645;DHT22;21764;52.042;6.830;2022-10-13T18:22:58;14.10;99.90
35645;DHT22;21764;52.042;6.830;2022-10-13T18:27:59;14.10;99.90
35645;DHT22;21764;52.042;6.830;2022-10-13T18:32:59;14.10;99.90
35645;DHT22;21764;52.042;6.830;2022-10-13T18:38:00;14.00;99.90
35645;DHT22;21764;52.042;6.830;2022-10-13T18:43:01;14.00;99.90
35645;DHT22;21764;52.042;6.830;2022-10-13T18:48:01;13.80;99.90
35645;DHT22;21764;52.042;6.830;2022-10-13T18:53:02;13.90;99.90
35645;DHT22;21764;52.042;6.830;2022-10-13T18:58:03;13.90;99.90
35645;DHT22;21764;52.042;6.830;2022-10-13T19:03:04;13.80;99.90
35645;DHT22;21764;52.042;6.830;2022-10-13T19:08:05;13.90;99.90
35645;DHT22;21764;52.042;6.830;2022-10-13T19:13:08;13.90;99.90
35645;DHT22;21764;52.042;6.830;2022-10-13T19:18:09;13.80;99.90
35645;DHT22;21764;52.042;6.830;2022-10-13T19:23:14;13.90;99.90
35645;DHT22;21764;52.042;6.830;2022-10-13T19:28:15;13.90;99.90
35645;DHT22;21764;52.042;6.830;2022-10-13T19:33:17;13.90;99.90
35645;DHT22;21764;52.042;6.830;2022-10-13T19:38:18;13.80;99.90
35645;DHT22;21764;52.042;6.830;2022-10-13T19:43:18;13.90;99.90
35645;DHT22;21764;52.042;6.830;2022-10-13T19:48:21;13.90;99.90
35645;DHT22;21764;52.042;6.830;2022-10-13T19:53:22;13.90;99.90
35645;DHT22;21764;52.042;6.830;2022-10-13T19:58:23;13.90;99.90
35645;DHT22;21764;52.042;6.830;2022-10-13T20:03:24;13.90;99.90
35645;DHT22;21764;52.042;6.830;2022-10-13T20:08:25;13.80;99.90
35645;DHT22;21764;52.042;6.830;2022-10-13T20:13:26;13.70;99.90
35645;DHT22;21764;52.042;6.830;2022-10-13T20:18:26;13.70;99.90
35645;DHT22;21764;52.042;6.830;2022-10-13T20:23:27;13.70;99.90
35645;DHT22;21764;52.042;6.830;2022-10-13T20:28:28;13.70;99.90
35645;DHT22;21764;52.042;6.830;2022-10-13T20:33:29;13.70;99.90
35645;DHT22;21764;52.042;6.830;2022-10-13T20:38:31;13.80;99.90
35645;DHT22;21764;52.042;6.830;2022-10-13T20:43:35;13.70;99.90
35645;DHT22;21764;52.042;6.830;2022-10-13T20:48:38;13.80;99.90
35645;DHT22;21764;52.042;6.830;2022-10-13T20:53:40;13.80;99.90
35645;DHT22;21764;52.042;6.830;2022-10-13T20:58:41;13.90;99.90
35645;DHT22;21764;52.042;6.830;2022-10-13T21:03:45;14.00;99.90
35645;DHT22;21764;52.042;6.830;2022-10-13T21:08:46;13.90;99.90
35645;DHT22;21764;52.042;6.830;2022-10-13T21:13:48;14.00;99.90
35645;DHT22;21764;52.042;6.830;2022-10-13T21:18:50;14.00;99.90
35645;DHT22;21764;52.042;6.830;2022-10-13T21:23:52;14.00;99.90
35645;DHT22;21764;52.042;6.830;2022-10-13T21:28:54;14.00;99.90
35645;DHT22;21764;52.042;6.830;2022-10-13T21:33:54;14.00;99.90
35645;DHT22;21764;52.042;6.830;2022-10-13T21:39:00;13.80;99.90
35645;DHT22;21764;52.042;6.830;2022-10-13T21:44:02;13.90;99.90
35645;DHT22;21764;52.042;6.830;2022-10-13T21:49:04;13.90;99.90
35645;DHT22;21764;52.042;6.830;2022-10-13T21:54:07;13.90;99.90
35645;DHT22;21764;52.042;6.830;2022-10-13T21:59:10;13.80;99.90
35645;DHT22;21764;52.042;6.830;2022-10-13T22:04:12;13.90;99.90
35645;DHT22;21764;52.042;6.830;2022-10-13T22:09:28;13.80;99.90
35645;DHT22;21764;52.042;6.830;2022-10-13T22:14:45;13.90;99.90
35645;DHT22;21764;52.042;6.830;2022-10-13T22:19:46;13.90;99.90
35645;DHT22;21764;52.042;6.830;2022-10-13T22:24:46;13.90;99.90
35645;DHT22;21764;52.042;6.830;2022-10-13T22:29:47;13.80;99.90
35645;DHT22;21764;52.042;6.830;2022-10-13T22:34:48;13.90;99.90
35645;DHT22;21764;52.042;6.830;2022-10-13T22:39:48;13.90;99.90
35645;DHT22;21764;52.042;6.830;2022-10-13T22:44:49;13.80;99.90
35645;DHT22;21764;52.042;6.830;2022-10-13T22:49:50;13.80;99.90
35645;DHT22;21764;52.042;6.830;2022-10-13T22:54:50;13.80;99.90
35645;DHT22;21764;52.042;6.830;2022-10-13T22:59:51;13.80;99.90
35645;DHT22;21764;52.042;6.830;2022-10-13T23:04:51;13.70;99.90
35645;DHT22;21764;52.042;6.830;2022-10-13T23:09:52;13.60;99.90
35645;DHT22;21764;52.042;6.830;2022-10-13T23:14:53;13.50;99.90
35645;DHT22;21764;52.042;6.830;2022-10-13T23:19:53;13.40;99.90
35645;DHT22;21764;52.042;6.830;2022-10-13T23:24:54;13.40;99.90
35645;DHT22;21764;52.042;6.830;2022-10-13T23:29:55;13.30;99.90
35645;DHT22;21764;52.042;6.830;2022-10-13T23:34:55;13.40;99.90
35645;DHT22;21764;52.042;6.830;2022-10-13T23:39:56;13.40;99.90
35645;DHT22;21764;52.042;6.830;2022-10-13T23:44:56;13.20;99.90
35645;DHT22;21764;52.042;6.830;2022-10-13T23:49:57;13.20;99.90
35645;DHT22;21764;52.042;6.830;2022-10-13T23:54:58;13.20;99.90
35645;DHT22;21764;52.042;6.830;2022-10-13T23:59:58;13.10;99.90
